sensor_id;sensor_type;location;lat;lon;timestamp;pressure;altitude;pressure_sealevel;temperature;humidity
77881;BME280;67077;50.298;18.996;2023-02-15T00:00:13;99630.26;;;2.76;72.53
77881;BME280;67077;50.298;18.996;2023-02-15T00:03:21;99628.90;;;2.73;72.36
77881;BME280;67077;50.298;18.996;2023-02-15T00:05:49;99621.73;;;2.72;72.40
77881;BME280;67077;50.298;18.996;2023-02-15T00:08:17;99620.14;;;2.70;72.54
77881;BME280;67077;50.298;18.996;2023-02-15T00:10:45;99617.31;;;2.69;72.68
77881;BME280;67077;50.298;18.996;2023-02-15T00:13:13;99614.26;;;2.76;72.35
77881;BME280;67077;50.298;18.996;2023-02-15T00:15:41;99617.60;;;2.79;72.14
77881;BME280;67077;50.298;18.996;2023-02-15T00:18:09;99613.65;;;2.77;72.23
77881;BME280;67077;50.298;18.996;2023-02-15T00:20:37;99614.32;;;2.73;72.20
77881;BME280;67077;50.298;18.996;2023-02-15T00:23:06;99614.36;;;2.69;72.18
77881;BME280;67077;50.298;18.996;2023-02-15T00:25:33;99613.21;;;2.65;72.16
77881;BME280;67077;50.298;18.996;2023-02-15T00:28:01;99605.62;;;2.63;72.13
77881;BME280;67077;50.298;18.996;2023-02-15T00:30:29;99603.71;;;2.60;72.52
77881;BME280;67077;50.298;18.996;2023-02-15T00:32:57;99597.05;;;2.55;72.56
77881;BME280;67077;50.298;18.996;2023-02-15T00:38:39;99590.09;;;2.57;72.58
77881;BME280;67077;50.298;18.996;2023-02-15T00:41:08;99586.96;;;2.60;72.61
77881;BME280;67077;50.298;18.996;2023-02-15T00:43:37;99581.48;;;2.60;72.32
77881;BME280;67077;50.298;18.996;2023-02-15T00:46:05;99578.74;;;2.58;72.56
77881;BME280;67077;50.298;18.996;2023-02-15T00:48:33;99575.21;;;2.56;72.65
77881;BME280;67077;50.298;18.996;2023-02-15T00:51:02;99570.74;;;2.54;72.88
77881;BME280;67077;50.298;18.996;2023-02-15T00:53:30;99571.23;;;2.53;72.96
77881;BME280;67077;50.298;18.996;2023-02-15T00:55:58;99571.69;;;2.50;72.89
77881;BME280;67077;50.298;18.996;2023-02-15T00:58:26;99573.14;;;2.48;72.92
77881;BME280;67077;50.298;18.996;2023-02-15T01:00:54;99567.77;;;2.44;73.04
77881;BME280;67077;50.298;18.996;2023-02-15T01:03:22;99567.86;;;2.43;73.14
77881;BME280;67077;50.298;18.996;2023-02-15T01:05:50;99561.11;;;2.45;72.87
77881;BME280;67077;50.298;18.996;2023-02-15T01:08:18;99562.98;;;2.48;72.84
77881;BME280;67077;50.298;18.996;2023-02-15T01:10:46;99563.05;;;2.49;72.75
77881;BME280;67077;50.298;18.996;2023-02-15T01:13:15;99570.61;;;2.48;72.95
77881;BME280;67077;50.298;18.996;2023-02-15T01:15:44;99576.59;;;2.47;73.14
77881;BME280;67077;50.298;18.996;2023-02-15T01:18:12;99578.20;;;2.44;73.31
77881;BME280;67077;50.298;18.996;2023-02-15T01:20:40;99572.23;;;2.41;73.68
77881;BME280;67077;50.298;18.996;2023-02-15T01:23:09;99569.69;;;2.37;73.64
77881;BME280;67077;50.298;18.996;2023-02-15T01:25:37;99568.11;;;2.35;73.73
77881;BME280;67077;50.298;18.996;2023-02-15T01:28:05;99560.27;;;2.35;73.55
77881;BME280;67077;50.298;18.996;2023-02-15T01:30:33;99564.80;;;2.38;73.60
77881;BME280;67077;50.298;18.996;2023-02-15T01:33:02;99558.48;;;2.44;73.68
77881;BME280;67077;50.298;18.996;2023-02-15T01:35:30;99555.45;;;2.46;73.59
77881;BME280;67077;50.298;18.996;2023-02-15T01:37:58;99549.66;;;2.45;73.45
77881;BME280;67077;50.298;18.996;2023-02-15T01:40:26;99542.60;;;2.42;73.73
77881;BME280;67077;50.298;18.996;2023-02-15T01:42:55;99540.65;;;2.40;73.74
77881;BME280;67077;50.298;18.996;2023-02-15T01:45:31;99536.66;;;2.37;73.79
77881;BME280;67077;50.298;18.996;2023-02-15T01:48:04;99532.01;;;2.33;73.81
77881;BME280;67077;50.298;18.996;2023-02-15T01:50:35;99528.11;;;2.29;73.68
77881;BME280;67077;50.298;18.996;2023-02-15T01:53:20;99520.86;;;2.28;74.22
77881;BME280;67077;50.298;18.996;2023-02-15T01:55:59;99522.23;;;2.31;74.19
77881;BME280;67077;50.298;18.996;2023-02-15T01:58:29;99521.64;;;2.32;73.81
77881;BME280;67077;50.298;18.996;2023-02-15T02:01:00;99523.66;;;2.31;73.80
77881;BME280;67077;50.298;18.996;2023-02-15T02:06:15;99517.88;;;2.21;74.13
77881;BME280;67077;50.298;18.996;2023-02-15T02:08:43;99516.49;;;2.17;74.34
77881;BME280;67077;50.298;18.996;2023-02-15T02:11:13;99510.04;;;2.18;74.45
77881;BME280;67077;50.298;18.996;2023-02-15T02:13:44;99503.20;;;2.23;74.41
77881;BME280;67077;50.298;18.996;2023-02-15T02:16:21;99500.66;;;2.26;74.29
77881;BME280;67077;50.298;18.996;2023-02-15T02:44:16;99469.70;;;2.05;75.11
77881;BME280;67077;50.298;18.996;2023-02-15T02:49:39;99457.65;;;2.13;75.18
77881;BME280;67077;50.298;18.996;2023-02-15T02:52:38;99454.52;;;2.10;75.29
77881;BME280;67077;50.298;18.996;2023-02-15T02:55:30;99450.14;;;2.07;75.58
77881;BME280;67077;50.298;18.996;2023-02-15T02:58:17;99454.47;;;2.02;75.63
77881;BME280;67077;50.298;18.996;2023-02-15T03:00:56;99452.52;;;2.00;75.79
77881;BME280;67077;50.298;18.996;2023-02-15T03:06:01;99452.02;;;2.06;75.98
77881;BME280;67077;50.298;18.996;2023-02-15T03:08:36;99454.48;;;2.08;75.93
77881;BME280;67077;50.298;18.996;2023-02-15T03:11:06;99455.09;;;2.09;75.91
77881;BME280;67077;50.298;18.996;2023-02-15T03:13:36;99454.85;;;2.06;76.03
77881;BME280;67077;50.298;18.996;2023-02-15T03:16:05;99448.64;;;2.00;76.26
77881;BME280;67077;50.298;18.996;2023-02-15T03:19:07;99446.02;;;1.93;76.10
77881;BME280;67077;50.298;18.996;2023-02-15T03:24:13;99444.16;;;1.98;76.36
77881;BME280;67077;50.298;18.996;2023-02-15T03:26:45;99444.95;;;1.99;76.32
77881;BME280;67077;50.298;18.996;2023-02-15T03:29:15;99446.77;;;1.97;76.38
77881;BME280;67077;50.298;18.996;2023-02-15T03:31:47;99443.11;;;1.92;76.49
77881;BME280;67077;50.298;18.996;2023-02-15T03:34:18;99445.98;;;1.85;76.74
77881;BME280;67077;50.298;18.996;2023-02-15T03:37:09;99439.97;;;1.80;76.67
77881;BME280;67077;50.298;18.996;2023-02-15T03:39:49;99443.52;;;1.78;76.84
77881;BME280;67077;50.298;18.996;2023-02-15T03:42:31;99444.86;;;1.75;76.72
77881;BME280;67077;50.298;18.996;2023-02-15T03:45:10;99453.54;;;1.71;77.22
77881;BME280;67077;50.298;18.996;2023-02-15T03:47:44;99459.12;;;1.71;77.28
77881;BME280;67077;50.298;18.996;2023-02-15T03:50:21;99458.39;;;1.71;77.15
77881;BME280;67077;50.298;18.996;2023-02-15T03:53:13;99457.92;;;1.78;77.33
77881;BME280;67077;50.298;18.996;2023-02-15T03:55:48;99460.48;;;1.84;77.08
77881;BME280;67077;50.298;18.996;2023-02-15T03:58:16;99455.20;;;1.86;76.97
77881;BME280;67077;50.298;18.996;2023-02-15T04:01:13;99463.13;;;1.84;77.12
77881;BME280;67077;50.298;18.996;2023-02-15T04:04:13;99462.86;;;1.78;77.27
77881;BME280;67077;50.298;18.996;2023-02-15T04:06:45;99461.79;;;1.77;77.26
77881;BME280;67077;50.298;18.996;2023-02-15T04:09:13;99462.98;;;1.79;77.38
77881;BME280;67077;50.298;18.996;2023-02-15T04:12:00;99463.67;;;1.77;77.03
77881;BME280;67077;50.298;18.996;2023-02-15T04:14:28;99458.77;;;1.75;77.11
77881;BME280;67077;50.298;18.996;2023-02-15T04:17:14;99458.88;;;1.69;77.19
77881;BME280;67077;50.298;18.996;2023-02-15T04:19:42;99461.30;;;1.66;77.68
77881;BME280;67077;50.298;18.996;2023-02-15T04:22:28;99466.02;;;1.62;77.64
77881;BME280;67077;50.298;18.996;2023-02-15T04:25:15;99460.69;;;1.60;77.86
77881;BME280;67077;50.298;18.996;2023-02-15T04:27:49;99459.23;;;1.61;77.77
77881;BME280;67077;50.298;18.996;2023-02-15T04:30:19;99459.04;;;1.61;77.71
77881;BME280;67077;50.298;18.996;2023-02-15T04:32:47;99458.02;;;1.59;77.75
77881;BME280;67077;50.298;18.996;2023-02-15T04:35:16;99455.11;;;1.57;78.04
77881;BME280;67077;50.298;18.996;2023-02-15T04:37:44;99454.27;;;1.61;78.13
77881;BME280;67077;50.298;18.996;2023-02-15T04:40:14;99455.42;;;1.62;78.27
77881;BME280;67077;50.298;18.996;2023-02-15T04:42:42;99457.56;;;1.64;78.12
77881;BME280;67077;50.298;18.996;2023-02-15T04:45:10;99457.27;;;1.65;78.19
77881;BME280;67077;50.298;18.996;2023-02-15T04:47:38;99461.61;;;1.62;78.30
77881;BME280;67077;50.298;18.996;2023-02-15T04:50:08;99467.67;;;1.60;78.01
77881;BME280;67077;50.298;18.996;2023-02-15T04:52:36;99465.50;;;1.63;78.10
77881;BME280;67077;50.298;18.996;2023-02-15T04:55:04;99461.97;;;1.64;78.29
77881;BME280;67077;50.298;18.996;2023-02-15T04:57:32;99464.13;;;1.64;78.20
77881;BME280;67077;50.298;18.996;2023-02-15T05:00:00;99463.08;;;1.62;78.18
77881;BME280;67077;50.298;18.996;2023-02-15T05:02:28;99459.39;;;1.59;78.31
77881;BME280;67077;50.298;18.996;2023-02-15T05:04:57;99460.27;;;1.57;78.35
77881;BME280;67077;50.298;18.996;2023-02-15T05:07:24;99459.05;;;1.59;78.43
77881;BME280;67077;50.298;18.996;2023-02-15T05:09:52;99453.87;;;1.64;78.31
77881;BME280;67077;50.298;18.996;2023-02-15T05:12:20;99452.39;;;1.68;78.52
77881;BME280;67077;50.298;18.996;2023-02-15T05:14:48;99454.42;;;1.67;78.38
77881;BME280;67077;50.298;18.996;2023-02-15T05:17:16;99455.95;;;1.60;78.41
77881;BME280;67077;50.298;18.996;2023-02-15T05:19:44;99456.73;;;1.53;78.35
77881;BME280;67077;50.298;18.996;2023-02-15T05:22:12;99458.72;;;1.46;78.69
77881;BME280;67077;50.298;18.996;2023-02-15T05:24:41;99457.30;;;1.44;78.44
77881;BME280;67077;50.298;18.996;2023-02-15T05:27:27;99455.83;;;1.42;78.82
77881;BME280;67077;50.298;18.996;2023-02-15T05:30:14;99454.54;;;1.41;78.65
77881;BME280;67077;50.298;18.996;2023-02-15T05:32:42;99451.34;;;1.39;78.90
77881;BME280;67077;50.298;18.996;2023-02-15T05:35:13;99452.23;;;1.36;78.92
77881;BME280;67077;50.298;18.996;2023-02-15T05:37:42;99451.23;;;1.38;78.96
77881;BME280;67077;50.298;18.996;2023-02-15T05:40:10;99452.17;;;1.39;79.06
77881;BME280;67077;50.298;18.996;2023-02-15T05:42:38;99456.27;;;1.41;78.76
77881;BME280;67077;50.298;18.996;2023-02-15T05:45:06;99454.95;;;1.40;79.13
77881;BME280;67077;50.298;18.996;2023-02-15T05:47:34;99453.35;;;1.36;79.21
77881;BME280;67077;50.298;18.996;2023-02-15T05:50:02;99457.67;;;1.33;79.38
77881;BME280;67077;50.298;18.996;2023-02-15T05:52:30;99453.27;;;1.37;79.27
77881;BME280;67077;50.298;18.996;2023-02-15T05:54:58;99457.45;;;1.42;79.15
77881;BME280;67077;50.298;18.996;2023-02-15T05:57:28;99451.98;;;1.39;79.40
77881;BME280;67077;50.298;18.996;2023-02-15T05:59:56;99451.46;;;1.35;79.38
77881;BME280;67077;50.298;18.996;2023-02-15T06:02:23;99452.63;;;1.34;79.54
77881;BME280;67077;50.298;18.996;2023-02-15T06:04:51;99453.67;;;1.30;79.71
77881;BME280;67077;50.298;18.996;2023-02-15T06:07:19;99451.23;;;1.29;79.65
77881;BME280;67077;50.298;18.996;2023-02-15T06:09:47;99453.48;;;1.34;79.71
77881;BME280;67077;50.298;18.996;2023-02-15T06:12:15;99450.64;;;1.34;79.51
77881;BME280;67077;50.298;18.996;2023-02-15T06:14:43;99450.32;;;1.32;79.55
77881;BME280;67077;50.298;18.996;2023-02-15T06:17:11;99448.62;;;1.29;79.72
77881;BME280;67077;50.298;18.996;2023-02-15T06:19:39;99449.36;;;1.26;79.75
77881;BME280;67077;50.298;18.996;2023-02-15T06:22:07;99452.58;;;1.30;79.94
77881;BME280;67077;50.298;18.996;2023-02-15T06:24:35;99456.70;;;1.38;79.55
77881;BME280;67077;50.298;18.996;2023-02-15T06:27:03;99461.81;;;1.43;79.41
77881;BME280;67077;50.298;18.996;2023-02-15T06:29:31;99461.29;;;1.45;79.50
77881;BME280;67077;50.298;18.996;2023-02-15T06:31:59;99463.13;;;1.42;79.45
77881;BME280;67077;50.298;18.996;2023-02-15T06:34:27;99466.04;;;1.41;79.69
77881;BME280;67077;50.298;18.996;2023-02-15T06:36:55;99464.80;;;1.41;79.94
77881;BME280;67077;50.298;18.996;2023-02-15T06:39:51;99471.42;;;1.49;79.63
77881;BME280;67077;50.298;18.996;2023-02-15T06:42:21;99471.17;;;1.52;79.54
77881;BME280;67077;50.298;18.996;2023-02-15T06:44:49;99471.39;;;1.54;79.42
77881;BME280;67077;50.298;18.996;2023-02-15T06:47:18;99473.06;;;1.53;79.53
77881;BME280;67077;50.298;18.996;2023-02-15T06:49:46;99469.45;;;1.54;79.39
77881;BME280;67077;50.298;18.996;2023-02-15T06:52:14;99469.63;;;1.53;79.53
77881;BME280;67077;50.298;18.996;2023-02-15T06:54:42;99465.17;;;1.56;79.62
77881;BME280;67077;50.298;18.996;2023-02-15T06:57:10;99471.39;;;1.64;79.55
77881;BME280;67077;50.298;18.996;2023-02-15T06:59:38;99461.46;;;1.68;79.43
77881;BME280;67077;50.298;18.996;2023-02-15T07:02:07;99460.34;;;1.64;79.23
77881;BME280;67077;50.298;18.996;2023-02-15T07:04:36;99458.27;;;1.60;79.30
77881;BME280;67077;50.298;18.996;2023-02-15T07:07:08;99455.54;;;1.59;79.27
77881;BME280;67077;50.298;18.996;2023-02-15T07:09:37;99454.11;;;1.58;79.22
77881;BME280;67077;50.298;18.996;2023-02-15T07:12:06;99454.93;;;1.64;79.22
77881;BME280;67077;50.298;18.996;2023-02-15T07:14:53;99456.45;;;1.71;79.53
77881;BME280;67077;50.298;18.996;2023-02-15T07:17:21;99454.13;;;1.77;79.13
77881;BME280;67077;50.298;18.996;2023-02-15T07:19:50;99453.41;;;1.84;79.14
77881;BME280;67077;50.298;18.996;2023-02-15T07:22:18;99453.75;;;1.86;78.91
77881;BME280;67077;50.298;18.996;2023-02-15T07:24:46;99455.18;;;1.86;78.83
77881;BME280;67077;50.298;18.996;2023-02-15T07:27:15;99453.89;;;1.87;78.74
77881;BME280;67077;50.298;18.996;2023-02-15T07:29:43;99448.16;;;1.85;78.77
77881;BME280;67077;50.298;18.996;2023-02-15T07:32:12;99450.30;;;1.87;78.77
77881;BME280;67077;50.298;18.996;2023-02-15T07:34:40;99445.06;;;1.88;78.55
77881;BME280;67077;50.298;18.996;2023-02-15T07:37:08;99447.27;;;1.85;78.42
77881;BME280;67077;50.298;18.996;2023-02-15T07:39:36;99443.73;;;1.83;78.58
77881;BME280;67077;50.298;18.996;2023-02-15T07:42:04;99446.05;;;1.78;78.65
77881;BME280;67077;50.298;18.996;2023-02-15T07:44:32;99444.92;;;1.77;78.62
77881;BME280;67077;50.298;18.996;2023-02-15T07:47:00;99445.59;;;1.79;78.70
77881;BME280;67077;50.298;18.996;2023-02-15T07:49:28;99439.19;;;1.84;78.81
77881;BME280;67077;50.298;18.996;2023-02-15T07:51:56;99440.45;;;1.88;79.03
77881;BME280;67077;50.298;18.996;2023-02-15T07:54:24;99436.50;;;1.94;78.83
77881;BME280;67077;50.298;18.996;2023-02-15T07:56:52;99436.52;;;2.04;78.72
77881;BME280;67077;50.298;18.996;2023-02-15T07:59:20;99432.12;;;2.10;78.33
77881;BME280;67077;50.298;18.996;2023-02-15T08:01:48;99429.20;;;2.11;77.77
77881;BME280;67077;50.298;18.996;2023-02-15T08:04:16;99429.20;;;2.09;78.07
77881;BME280;67077;50.298;18.996;2023-02-15T08:06:45;99426.95;;;2.10;78.02
77881;BME280;67077;50.298;18.996;2023-02-15T08:09:13;99422.52;;;2.12;78.01
77881;BME280;67077;50.298;18.996;2023-02-15T08:11:41;99422.48;;;2.19;77.97
77881;BME280;67077;50.298;18.996;2023-02-15T08:14:12;99419.52;;;2.24;77.81
77881;BME280;67077;50.298;18.996;2023-02-15T08:16:52;99418.27;;;2.28;77.65
77881;BME280;67077;50.298;18.996;2023-02-15T08:19:27;99420.28;;;2.31;77.65
77881;BME280;67077;50.298;18.996;2023-02-15T08:21:57;99414.82;;;2.39;77.31
77881;BME280;67077;50.298;18.996;2023-02-15T08:24:29;99418.52;;;2.46;77.14
77881;BME280;67077;50.298;18.996;2023-02-15T08:26:58;99418.16;;;2.48;76.89
77881;BME280;67077;50.298;18.996;2023-02-15T08:29:28;99417.54;;;2.49;77.00
77881;BME280;67077;50.298;18.996;2023-02-15T08:32:00;99414.30;;;2.51;76.92
77881;BME280;67077;50.298;18.996;2023-02-15T08:34:33;99415.20;;;2.59;76.90
77881;BME280;67077;50.298;18.996;2023-02-15T08:37:02;99411.77;;;2.65;76.59
77881;BME280;67077;50.298;18.996;2023-02-15T08:39:29;99413.46;;;2.66;76.40
77881;BME280;67077;50.298;18.996;2023-02-15T08:41:58;99412.36;;;2.68;76.24
77881;BME280;67077;50.298;18.996;2023-02-15T08:44:26;99410.03;;;2.71;76.23
77881;BME280;67077;50.298;18.996;2023-02-15T08:46:53;99408.14;;;2.76;76.26
77881;BME280;67077;50.298;18.996;2023-02-15T08:49:22;99408.43;;;2.84;75.93
77881;BME280;67077;50.298;18.996;2023-02-15T08:51:50;99409.13;;;2.91;75.96
77881;BME280;67077;50.298;18.996;2023-02-15T08:54:20;99403.51;;;2.92;75.59
77881;BME280;67077;50.298;18.996;2023-02-15T08:56:50;99400.36;;;2.89;75.55
77881;BME280;67077;50.298;18.996;2023-02-15T08:59:20;99397.92;;;2.90;75.73
77881;BME280;67077;50.298;18.996;2023-02-15T09:01:50;99397.80;;;2.96;75.72
77881;BME280;67077;50.298;18.996;2023-02-15T09:04:20;99397.08;;;3.02;75.59
77881;BME280;67077;50.298;18.996;2023-02-15T09:06:49;99397.19;;;3.03;75.38
77881;BME280;67077;50.298;18.996;2023-02-15T09:09:18;99395.45;;;3.04;75.61
77881;BME280;67077;50.298;18.996;2023-02-15T09:11:49;99390.85;;;3.10;75.56
77881;BME280;67077;50.298;18.996;2023-02-15T09:14:19;99387.23;;;3.14;75.59
77881;BME280;67077;50.298;18.996;2023-02-15T09:16:48;99388.30;;;3.24;75.32
77881;BME280;67077;50.298;18.996;2023-02-15T09:19:20;99384.39;;;3.31;74.74
77881;BME280;67077;50.298;18.996;2023-02-15T09:21:48;99385.46;;;3.35;74.21
77881;BME280;67077;50.298;18.996;2023-02-15T09:24:17;99382.95;;;3.39;74.42
77881;BME280;67077;50.298;18.996;2023-02-15T09:26:47;99381.25;;;3.44;74.12
77881;BME280;67077;50.298;18.996;2023-02-15T09:29:17;99377.96;;;3.48;74.07
77881;BME280;67077;50.298;18.996;2023-02-15T09:31:47;99367.94;;;3.53;73.98
77881;BME280;67077;50.298;18.996;2023-02-15T09:34:18;99366.54;;;3.62;73.99
77881;BME280;67077;50.298;18.996;2023-02-15T09:36:47;99364.45;;;3.75;73.81
77881;BME280;67077;50.298;18.996;2023-02-15T09:39:18;99360.95;;;3.84;73.12
77881;BME280;67077;50.298;18.996;2023-02-15T09:42:16;99360.83;;;3.89;72.59
77881;BME280;67077;50.298;18.996;2023-02-15T10:04:39;99334.34;;;4.32;71.37
77881;BME280;67077;50.298;18.996;2023-02-15T10:10:14;99331.84;;;4.54;70.94
77881;BME280;67077;50.298;18.996;2023-02-15T10:28:20;99319.47;;;5.01;69.62
77881;BME280;67077;50.298;18.996;2023-02-15T10:30:53;99313.08;;;5.17;69.53
77881;BME280;67077;50.298;18.996;2023-02-15T10:33:40;99313.80;;;5.27;69.25
77881;BME280;67077;50.298;18.996;2023-02-15T10:36:28;99309.85;;;5.33;68.95
77881;BME280;67077;50.298;18.996;2023-02-15T10:44:47;99306.95;;;5.51;67.82
77881;BME280;67077;50.298;18.996;2023-02-15T11:01:35;99282.69;;;5.85;66.80
77881;BME280;67077;50.298;18.996;2023-02-15T11:06:53;99269.78;;;6.01;66.32
77881;BME280;67077;50.298;18.996;2023-02-15T11:09:24;99270.36;;;6.08;66.43
77881;BME280;67077;50.298;18.996;2023-02-15T11:11:56;99262.96;;;6.16;65.72
77881;BME280;67077;50.298;18.996;2023-02-15T11:14:40;99261.70;;;6.24;65.02
77881;BME280;67077;50.298;18.996;2023-02-15T11:17:14;99257.05;;;6.33;64.34
77881;BME280;67077;50.298;18.996;2023-02-15T11:22:32;99258.62;;;6.56;63.81
77881;BME280;67077;50.298;18.996;2023-02-15T11:25:02;99255.17;;;6.69;63.27
77881;BME280;67077;50.298;18.996;2023-02-15T11:27:41;99248.32;;;6.77;62.79
77881;BME280;67077;50.298;18.996;2023-02-15T11:30:13;99248.34;;;6.86;62.48
77881;BME280;67077;50.298;18.996;2023-02-15T11:32:43;99246.67;;;6.92;62.02
77881;BME280;67077;50.298;18.996;2023-02-15T11:35:25;99245.82;;;6.98;61.88
77881;BME280;67077;50.298;18.996;2023-02-15T11:38:06;99245.77;;;7.04;61.71
77881;BME280;67077;50.298;18.996;2023-02-15T11:40:59;99241.64;;;7.07;61.02
77881;BME280;67077;50.298;18.996;2023-02-15T11:43:37;99237.73;;;7.11;60.78
77881;BME280;67077;50.298;18.996;2023-02-15T11:46:10;99232.29;;;7.09;60.29
77881;BME280;67077;50.298;18.996;2023-02-15T11:48:42;99232.16;;;7.10;60.44
77881;BME280;67077;50.298;18.996;2023-02-15T11:51:17;99228.20;;;7.15;60.14
77881;BME280;67077;50.298;18.996;2023-02-15T11:53:46;99227.77;;;7.15;59.91
77881;BME280;67077;50.298;18.996;2023-02-15T11:56:18;99228.59;;;7.21;60.01
77881;BME280;67077;50.298;18.996;2023-02-15T11:59:03;99223.67;;;7.25;59.87
77881;BME280;67077;50.298;18.996;2023-02-15T12:06:49;99212.27;;;7.21;59.85
77881;BME280;67077;50.298;18.996;2023-02-15T12:12:25;99204.27;;;7.27;59.88
77881;BME280;67077;50.298;18.996;2023-02-15T12:15:14;99199.05;;;7.35;59.76
77881;BME280;67077;50.298;18.996;2023-02-15T12:17:51;99197.27;;;7.46;59.86
77881;BME280;67077;50.298;18.996;2023-02-15T12:22:54;99192.21;;;7.61;59.12
77881;BME280;67077;50.298;18.996;2023-02-15T12:25:29;99187.11;;;7.65;58.66
77881;BME280;67077;50.298;18.996;2023-02-15T12:28:05;99181.27;;;7.67;58.87
77881;BME280;67077;50.298;18.996;2023-02-15T12:30:43;99175.84;;;7.71;58.58
77881;BME280;67077;50.298;18.996;2023-02-15T12:33:35;99171.98;;;7.71;58.50
77881;BME280;67077;50.298;18.996;2023-02-15T12:36:17;99175.48;;;7.77;58.51
77881;BME280;67077;50.298;18.996;2023-02-15T12:41:33;99169.45;;;7.88;58.18
77881;BME280;67077;50.298;18.996;2023-02-15T12:44:07;99167.21;;;7.90;57.78
77881;BME280;67077;50.298;18.996;2023-02-15T12:46:56;99166.41;;;7.94;57.62
77881;BME280;67077;50.298;18.996;2023-02-15T12:49:27;99160.48;;;7.95;57.36
77881;BME280;67077;50.298;18.996;2023-02-15T12:51:58;99160.89;;;7.96;56.93
77881;BME280;67077;50.298;18.996;2023-02-15T12:54:39;99158.13;;;7.99;56.99
77881;BME280;67077;50.298;18.996;2023-02-15T12:59:51;99147.48;;;8.03;56.94
77881;BME280;67077;50.298;18.996;2023-02-15T13:02:43;99148.45;;;8.06;57.09
77881;BME280;67077;50.298;18.996;2023-02-15T13:05:32;99147.35;;;8.09;56.80
77881;BME280;67077;50.298;18.996;2023-02-15T13:08:21;99139.73;;;8.12;56.83
77881;BME280;67077;50.298;18.996;2023-02-15T13:11:03;99135.93;;;8.14;56.42
77881;BME280;67077;50.298;18.996;2023-02-15T13:13:46;99132.52;;;8.15;56.57
77881;BME280;67077;50.298;18.996;2023-02-15T13:16:16;99132.07;;;8.17;56.64
77881;BME280;67077;50.298;18.996;2023-02-15T13:18:50;99125.91;;;8.19;56.27
77881;BME280;67077;50.298;18.996;2023-02-15T13:21:25;99128.06;;;8.21;55.84
77881;BME280;67077;50.298;18.996;2023-02-15T13:24:23;99120.83;;;8.24;55.86
77881;BME280;67077;50.298;18.996;2023-02-15T13:26:55;99115.29;;;8.27;55.11
77881;BME280;67077;50.298;18.996;2023-02-15T13:29:28;99111.95;;;8.29;55.26
77881;BME280;67077;50.298;18.996;2023-02-15T13:32:07;99110.12;;;8.33;54.86
77881;BME280;67077;50.298;18.996;2023-02-15T13:34:40;99106.53;;;8.36;53.92
77881;BME280;67077;50.298;18.996;2023-02-15T13:37:15;99103.94;;;8.40;53.62
77881;BME280;67077;50.298;18.996;2023-02-15T13:42:38;99097.81;;;8.44;53.71
77881;BME280;67077;50.298;18.996;2023-02-15T13:45:21;99099.64;;;8.46;53.70
77881;BME280;67077;50.298;18.996;2023-02-15T13:57:06;99098.36;;;8.52;52.52
77881;BME280;67077;50.298;18.996;2023-02-15T13:59:51;99096.39;;;8.54;52.59
77881;BME280;67077;50.298;18.996;2023-02-15T14:08:53;99084.41;;;8.53;51.81
77881;BME280;67077;50.298;18.996;2023-02-15T14:12:18;99088.58;;;8.53;52.13
77881;BME280;67077;50.298;18.996;2023-02-15T14:17:25;99081.04;;;8.50;51.86
77881;BME280;67077;50.298;18.996;2023-02-15T14:23:06;99078.95;;;8.49;51.89
77881;BME280;67077;50.298;18.996;2023-02-15T14:25:50;99078.55;;;8.50;52.07
77881;BME280;67077;50.298;18.996;2023-02-15T14:31:02;99076.98;;;8.48;52.04
77881;BME280;67077;50.298;18.996;2023-02-15T14:33:50;99077.63;;;8.47;52.24
77881;BME280;67077;50.298;18.996;2023-02-15T14:36:22;99072.52;;;8.45;52.65
77881;BME280;67077;50.298;18.996;2023-02-15T14:41:37;99070.27;;;8.41;52.15
77881;BME280;67077;50.298;18.996;2023-02-15T14:44:22;99070.85;;;8.38;52.37
77881;BME280;67077;50.298;18.996;2023-02-15T14:47:01;99072.89;;;8.36;52.66
77881;BME280;67077;50.298;18.996;2023-02-15T14:49:36;99068.89;;;8.34;52.87
77881;BME280;67077;50.298;18.996;2023-02-15T14:52:11;99067.20;;;8.30;52.89
77881;BME280;67077;50.298;18.996;2023-02-15T15:07:42;99067.64;;;8.02;54.15
77881;BME280;67077;50.298;18.996;2023-02-15T15:12:46;99067.64;;;7.91;54.77
77881;BME280;67077;50.298;18.996;2023-02-15T15:18:02;99066.80;;;7.78;54.92
77881;BME280;67077;50.298;18.996;2023-02-15T15:20:48;99067.21;;;7.71;55.10
77881;BME280;67077;50.298;18.996;2023-02-15T15:25:49;99067.34;;;7.55;55.56
77881;BME280;67077;50.298;18.996;2023-02-15T15:37:16;99054.48;;;7.15;56.38
77881;BME280;67077;50.298;18.996;2023-02-15T15:40:21;99056.44;;;7.04;56.78
77881;BME280;67077;50.298;18.996;2023-02-15T15:48:30;99053.48;;;6.72;57.61
77881;BME280;67077;50.298;18.996;2023-02-15T15:51:05;99054.22;;;6.60;57.96
77881;BME280;67077;50.298;18.996;2023-02-15T15:53:41;99052.36;;;6.49;58.23
77881;BME280;67077;50.298;18.996;2023-02-15T15:56:17;99052.06;;;6.39;58.47
77881;BME280;67077;50.298;18.996;2023-02-15T15:58:53;99048.91;;;6.27;58.88
77881;BME280;67077;50.298;18.996;2023-02-15T16:01:27;99044.66;;;6.16;59.31
77881;BME280;67077;50.298;18.996;2023-02-15T16:03:58;99044.58;;;6.05;59.60
77881;BME280;67077;50.298;18.996;2023-02-15T16:06:34;99045.55;;;5.94;59.89
77881;BME280;67077;50.298;18.996;2023-02-15T16:11:39;99045.81;;;5.70;60.79
77881;BME280;67077;50.298;18.996;2023-02-15T16:14:14;99047.85;;;5.60;61.13
77881;BME280;67077;50.298;18.996;2023-02-15T16:16:49;99049.93;;;5.49;61.37
77881;BME280;67077;50.298;18.996;2023-02-15T16:19:25;99052.98;;;5.37;61.74
77881;BME280;67077;50.298;18.996;2023-02-15T16:21:55;99050.73;;;5.24;62.06
77881;BME280;67077;50.298;18.996;2023-02-15T16:24:48;99054.43;;;5.14;62.38
77881;BME280;67077;50.298;18.996;2023-02-15T16:27:42;99051.36;;;5.03;62.98
77881;BME280;67077;50.298;18.996;2023-02-15T16:30:33;99054.27;;;4.96;63.06
77881;BME280;67077;50.298;18.996;2023-02-15T16:35:36;99058.68;;;4.91;63.77
77881;BME280;67077;50.298;18.996;2023-02-15T16:38:09;99056.39;;;4.86;63.88
77881;BME280;67077;50.298;18.996;2023-02-15T16:40:54;99055.46;;;4.79;64.15